Columbus, Ohio
Traffic Map
Current Weather Conditions
Columbus, Ohio
Overcast Haze
Overcast
23°
Feels Like: 23°
Wind Chill: 23° Ceiling: 500
Heat Index: 23° Visibility: 4mi
Dew Point: 21° Wind: 6mph
Humidity: 87% Direction: 180° (S)
Pressure: 30.03in Gusts: 0mph
Raw Report DataKCMH 310751Z 18005KT 4SM BR BKN005 OVC032 23/21 A3003 RMK AO2 RAB01E14 SLP160 P0000 T02280206
Traffic Incident Summary
Active as of:
Severity:
Category:
InformationThere was an issue retrieving the traffic information for this location. Please try a different location or try again shortly.
Advertisements
Track Severe Weather on mobile